Hawaii METAR Reports

 

PHOG - Kahului, Hawaii, USA
Distance from station: WNW 8mi, 13km
Updated: Fri, 13-Dec-2019 12:54am HST
Few Clouds
Few Clouds
 Wind from NE
Wind: NE 12 mph , 19 km/h
Temperature: 77°F , 25°C
Dew Point: 70°F , 21°C
Humidity: 79%
Barometer: 30.04 inHg , 1017.3 hPa
Clouds: Few Clouds
Visibility: 10 miles , 16 km
Cloud details: Few Clouds 8000 ft
2019/12/13 10:54 PHOG 131054Z AUTO 04010KT 10SM FEW080 25/21 A3004 RMK AO2 SLP179 T02500206 TSNO
PHJH - Lahaina/West Mau, Hawaii, USA
Distance from station: WNW 24mi, 39km
Updated: Thu, 12-Dec-2019 5:45pm HST
NOT Current
Light rain, Mostly cloudy
Light rain, Mostly cloudy
 Wind from E
Wind: E 14 mph , 22 km/h
Temperature: 75°F , 24°C
Dew Point: 70°F , 21°C
Humidity: 83%
Barometer: 30.02 inHg , 1016.6 hPa
Summary: Light Rain
Clouds: Mostly Cloudy
Visibility: 12 miles , 19 km
Cloud details: Partly Cloudy 4000 ft
Mostly Cloudy 6500 ft
2019/12/13 03:45 PHJH 130345Z 08012KT 12SM -RA SCT040 BKN065 24/21 A3002 RMK LAST
 
PHNY - Lanai City Airpo, Hawaii, USA
Distance from station: W 40mi, 65km
Updated: Thu, 12-Dec-2019 11:56pm HST

 Wind from NE
Wind: NE 5 mph , 7 km/h
Temperature: 70°F , 21°C
Barometer: 30.11 inHg , 1019.6 hPa
Visibility: 10 miles , 16 km
2019/12/13 09:56 PHNY 130956Z AUTO 05004KT 10SM 21/ A3011 RMK AO2 SLP175 T0206 402720178
PHMK - Molokai, Hawaii, USA
Distance from station: WNW 55mi, 88km
Updated: Fri, 13-Dec-2019 12:54am HST
Clear
Clear
 Wind from NNE
Wind: NNE 13 mph , 20 km/h, Gust: 18 mph , 30 km/h
Temperature: 75°F , 24°C
Dew Point: 68°F , 20°C
Humidity: 78%
Barometer: 30.06 inHg , 1017.9 hPa
Clouds: Clear
Visibility: 10 miles , 16 km
2019/12/13 10:54 PHMK 131054Z AUTO 03011G16KT 10SM CLR 24/20 A3006 RMK AO2 SLP179 T02440200 TSNO $
 
PHKO - Kailua/Kona, Hawaii, USA
Distance from station: SSE 79mi, 128km
Updated: Fri, 13-Dec-2019 12:53am HST
Clear
Clear
 Wind from ENE
Wind: ENE 3 mph , 6 km/h
Temperature: 73°F , 23°C
Dew Point: 66°F , 19°C
Humidity: 78%
Barometer: 30.00 inHg , 1015.9 hPa
Clouds: Clear
Visibility: 10 miles , 16 km
2019/12/13 10:53 PHKO 131053Z AUTO 07003KT 10SM CLR 23/19 A3000 RMK AO2 SLP159 T02330194 TSNO
PHSF - Bradshaw Aaf/Haw, Hawaii, USA
Distance from station: SE 90mi, 145km
Updated: Thu, 12-Dec-2019 11:58pm HST
Clear
Clear
 Wind from NW
Wind: NW 17 mph , 28 km/h, Gust: 26 mph , 43 km/h
Clouds: Clear
Visibility: 10 miles , 16 km
2019/12/13 09:58 PHSF 130958Z AUTO 31015G23KT 10SM CLR M A3034 RMK AO2 SLPNO 402140061 FZRANO $
 
PHNG - Kaneohe Mcas, Hawaii, USA
Distance from station: WNW 102mi, 164km
Updated: Fri, 13-Dec-2019 12:54am HST
Rain, Mist, Overcast
Rain, Mist, Overcast
 Wind from NE
Wind: NE 16 mph , 26 km/h
Temperature: 73°F , 23°C
Dew Point: 72°F , 22°C
Humidity: 94%
Barometer: 30.04 inHg , 1017.3 hPa
Summary: Rain, Mist
Clouds: Overcast
Visibility: 3 miles , 5 km
Cloud details: Few Clouds 1400 ft
Mostly Cloudy 3200 ft
Overcast 4300 ft
2019/12/13 10:54 PHNG 131054Z 04014KT 3SM RA BR FEW014 BKN032 OVC043 23/22 A3004 RMK AO2 RAB07E16B43 P0003 $
PHNL - Honolulu, Hawaii, USA
Distance from station: WNW 108mi, 174km
Updated: Fri, 13-Dec-2019 12:53am HST
Light rain, Overcast
Light rain, Overcast
 Wind from WNW
Wind: WNW 8 mph , 13 km/h
Temperature: 73°F , 23°C
Dew Point: 70°F , 21°C
Humidity: 89%
Barometer: 30.05 inHg , 1017.6 hPa
Summary: Light Rain
Clouds: Overcast
Visibility: 10 miles , 16 km
Cloud details: Few Clouds 1800 ft
Overcast 2500 ft
2019/12/13 10:53 PHNL 131053Z 29007KT 10SM -RA FEW018 OVC025 23/21 A3005 RMK AO2 SLP177 P0018 T02280211 $
 
PHTO - Hilo, Hawaii, USA
Distance from station: SE 114mi, 183km
Updated: Fri, 13-Dec-2019 12:53am HST
Overcast
Overcast
 Wind from WSW
Wind: WSW 6 mph , 9 km/h
Temperature: 73°F , 23°C
Dew Point: 70°F , 21°C
Humidity: 89%
Barometer: 30.08 inHg , 1018.6 hPa
Clouds: Overcast
Visibility: 10 miles , 16 km
Cloud details: Partly Cloudy 4000 ft
Overcast 5000 ft
2019/12/13 10:53 PHTO 131053Z AUTO 24005KT 10SM SCT040 OVC050 23/21 A3008 RMK AO2 RAB08E18 SLP184 P0001 T02280206 TSNO
PHJR - Kalaeloa, Hawaii, USA
Distance from station: WNW 117mi, 189km
Updated: Fri, 13-Dec-2019 12:38am HST
Light rain, Overcast
Light rain, Overcast
 Wind from calm
Wind: Calm
Temperature: 73°F , 23°C
Dew Point: 72°F , 22°C
Humidity: 94%
Barometer: 30.07 inHg , 1018.3 hPa
Summary: Light Rain
Clouds: Overcast
Visibility: 10 miles , 16 km
Cloud details: Few Clouds 2300 ft
Mostly Cloudy 3600 ft
Overcast 5000 ft
2019/12/13 10:38 PHJR 131038Z AUTO 00000KT 10SM -RA FEW023 BKN036 OVC050 23/22 A3007 RMK AO2 P0012 T02280217 TSNO $
 
PHHI - Wheeler Afb/Oahu, Hawaii, USA
Distance from station: WNW 120mi, 193km
Updated: Fri, 13-Dec-2019 12:46am HST
Light drizzle, Overcast
Light drizzle, Overcast
 Wind from WNW
Wind: WNW 5 mph , 7 km/h
Temperature: 70°F , 21°C
Dew Point: 70°F , 21°C
Humidity: 100%
Barometer: 30.06 inHg , 1017.9 hPa
Summary: Light Drizzle
Clouds: Overcast
Visibility: 10 miles , 16 km
Cloud details: Partly Cloudy 700 ft
Mostly Cloudy 1600 ft
Mostly Cloudy 2900 ft
Overcast 3900 ft
2019/12/13 10:46 PHHI 131046Z 30004KT 10SM -DZ SCT007 BKN016 BKN029 OVC039 21/21 A3006 RMK AO2A DZE0959RAB0959E41DZB41 SLP169 $
PHLI - Lihue/Kauai Is, Hawaii, USA
Distance from station: WNW 209mi, 336km
Updated: Fri, 13-Dec-2019 12:53am HST
Mostly Cloudy
Mostly Cloudy
 Wind from NNE
Wind: NNE 16 mph , 26 km/h
Temperature: 75°F , 24°C
Dew Point: 72°F , 22°C
Humidity: 89%
Barometer: 30.08 inHg , 1018.6 hPa
Clouds: Mostly Cloudy
Visibility: 10 miles , 16 km
Cloud details: Few Clouds 1500 ft
Partly Cloudy 2300 ft
Mostly Cloudy 7500 ft
2019/12/13 10:53 PHLI 131053Z AUTO 03014KT 10SM FEW015 SCT023 BKN075 24/22 A3008 RMK AO2 SLP184 T02440222 TSNO $
 
PHBK - Barking Sands/Ka, Hawaii, USA
Distance from station: WNW 237mi, 382km
Updated: Thu, 12-Dec-2019 11:56pm HST
Clear
Clear
 Wind from calm
Wind: Calm
Barometer: 30.06 inHg , 1017.9 hPa
Clouds: Clear
Visibility: 10 miles , 16 km
2019/12/13 09:56 PHBK 130956Z AUTO 00000KT 10SM CLR A3006 RMK AO2 SLP183 PNO $